createdAt,value
2022-10-16T00:01:47.162Z,99440.56
2022-10-16T00:04:16.385Z,99440.56
2022-10-16T00:06:44.949Z,99182.69
2022-10-16T00:09:13.651Z,98924.81
2022-10-16T00:11:42.869Z,98924.81
2022-10-16T00:14:16.631Z,98924.81
2022-10-16T00:16:45.350Z,98924.81
2022-10-16T00:19:14.492Z,99440.56
2022-10-16T00:21:43.420Z,99182.69
2022-10-16T00:24:30.706Z,98924.81
2022-10-16T00:26:59.526Z,98924.81
2022-10-16T00:29:29.601Z,99182.69
2022-10-16T00:31:59.543Z,99182.69
2022-10-16T00:34:29.294Z,98924.81
2022-10-16T00:36:58.065Z,98666.94
2022-10-16T00:39:27.148Z,98151.31
2022-10-16T00:41:56.011Z,98151.31
2022-10-16T00:44:50.917Z,97893.50
2022-10-16T00:47:26.082Z,97893.50
2022-10-16T00:50:00.108Z,97893.50
2022-10-16T00:52:29.166Z,98151.31
2022-10-16T00:54:59.298Z,98151.31
2022-10-16T00:57:32.070Z,97893.50
2022-10-16T01:00:02.649Z,97893.50
2022-10-16T01:02:32.034Z,98151.31
2022-10-16T01:05:01.023Z,97893.50
2022-10-16T01:07:40.627Z,97635.72
2022-10-16T01:10:16.749Z,97635.72
2022-10-16T01:12:50.176Z,96604.81
2022-10-16T01:15:28.844Z,95316.59
2022-10-16T01:18:03.169Z,94286.38
2022-10-16T01:20:35.329Z,92999.00
2022-10-16T01:23:18.018Z,91454.81
2022-10-16T01:26:12.988Z,91712.13
2022-10-16T01:28:47.577Z,92484.19
2022-10-16T01:31:19.643Z,93256.44
2022-10-16T01:36:29.857Z,94801.44
2022-10-16T01:39:07.070Z,94286.38
2022-10-16T01:41:40.533Z,94801.44
2022-10-16T01:44:15.684Z,93513.91
2022-10-16T01:46:48.608Z,92999.00
2022-10-16T01:49:20.347Z,92741.59
2022-10-16T01:51:55.727Z,93256.44
2022-10-16T01:54:28.121Z,93513.91
2022-10-16T01:56:58.885Z,94028.84
2022-10-16T01:59:34.198Z,93513.91
2022-10-16T02:02:08.878Z,93256.44
2022-10-16T02:04:42.039Z,92484.19
2022-10-16T02:07:11.367Z,92226.81
2022-10-16T02:09:40.776Z,92484.19
2022-10-16T02:12:16.478Z,92226.81
2022-10-16T02:14:46.384Z,91969.47
2022-10-16T02:17:18.649Z,91712.13
2022-10-16T02:19:50.029Z,91712.13
2022-10-16T02:22:24.993Z,91712.13
2022-10-16T02:24:59.029Z,91454.81
2022-10-16T02:27:38.914Z,91969.47
2022-10-16T02:30:15.695Z,91712.13
2022-10-16T02:32:47.700Z,91712.13
2022-10-16T02:35:19.272Z,91712.13
2022-10-16T02:37:49.101Z,91969.47
2022-10-16T02:40:21.508Z,91712.13
2022-10-16T02:42:54.567Z,92226.81
2022-10-16T02:45:26.144Z,91969.47
2022-10-16T02:47:54.573Z,91712.13
2022-10-16T02:50:23.401Z,91712.13
2022-10-16T02:52:51.862Z,91712.13
2022-10-16T02:55:20.448Z,92226.81
2022-10-16T02:57:49.603Z,92484.19
2022-10-16T03:00:19.847Z,92999.00
2022-10-16T03:02:49.849Z,92999.00
2022-10-16T03:05:19.225Z,92999.00
2022-10-16T03:07:47.842Z,92741.59
2022-10-16T03:10:16.448Z,93256.44
2022-10-16T03:12:44.978Z,93256.44
2022-10-16T03:15:13.348Z,93513.91
2022-10-16T03:17:41.769Z,93771.38
2022-10-16T03:20:12.127Z,93256.44
2022-10-16T03:22:40.852Z,93256.44
2022-10-16T03:25:10.155Z,92999.00
2022-10-16T03:27:39.046Z,92741.59
2022-10-16T03:30:09.176Z,91969.47
2022-10-16T03:32:37.847Z,91712.13
2022-10-16T03:35:07.076Z,91712.13
2022-10-16T03:37:38.411Z,91969.47
2022-10-16T03:40:08.041Z,91712.13
2022-10-16T03:42:37.226Z,91969.47
2022-10-16T03:45:06.588Z,92226.81
2022-10-16T03:47:35.335Z,92226.81
2022-10-16T03:50:03.738Z,91969.47
2022-10-16T03:52:33.240Z,92226.81
2022-10-16T03:55:03.085Z,92484.19
2022-10-16T03:57:31.457Z,92484.19
2022-10-16T03:59:59.809Z,92741.59
2022-10-16T04:02:28.182Z,92226.81
2022-10-16T04:04:56.757Z,92226.81
2022-10-16T04:07:25.623Z,92484.19
2022-10-16T04:09:58.884Z,92999.00
2022-10-16T04:12:29.303Z,92741.59
2022-10-16T04:14:57.747Z,92484.19
2022-10-16T04:17:26.355Z,91712.13
2022-10-16T04:19:55.117Z,92484.19
2022-10-16T04:22:23.798Z,92484.19
2022-10-16T04:24:52.365Z,92484.19
2022-10-16T04:27:22.474Z,92226.81
2022-10-16T04:29:52.465Z,91969.47
2022-10-16T04:32:21.211Z,92226.81
2022-10-16T04:34:49.593Z,92741.59
2022-10-16T04:37:18.344Z,92741.59
2022-10-16T04:39:47.446Z,92999.00
2022-10-16T04:42:16.195Z,92999.00
2022-10-16T04:44:44.785Z,92484.19
2022-10-16T04:47:15.480Z,92484.19
2022-10-16T04:49:44.104Z,92226.81
2022-10-16T04:52:12.646Z,92484.19
2022-10-16T04:54:42.254Z,91969.47
2022-10-16T04:57:10.814Z,91712.13
2022-10-16T04:59:39.295Z,91197.50
2022-10-16T05:02:07.786Z,91454.81
2022-10-16T05:04:38.292Z,90682.97
2022-10-16T05:07:07.027Z,90168.50
2022-10-16T05:09:35.893Z,90682.97
2022-10-16T05:12:05.014Z,89654.13
2022-10-16T05:14:33.682Z,89139.81
2022-10-16T05:17:02.963Z,88882.69
2022-10-16T05:19:31.546Z,88368.50
2022-10-16T05:22:01.538Z,88368.50
2022-10-16T05:24:30.342Z,87597.34
2022-10-16T05:26:59.831Z,87083.34
2022-10-16T05:29:28.297Z,86826.34
2022-10-16T05:31:56.773Z,86055.56
2022-10-16T05:34:25.605Z,86569.41
2022-10-16T05:36:54.049Z,85798.66
2022-10-16T05:39:23.995Z,85284.91
2022-10-16T05:41:53.536Z,84514.44
2022-10-16T05:44:22.220Z,83487.44
2022-10-16T05:46:50.780Z,83230.72
2022-10-16T05:49:19.397Z,82460.72
2022-10-16T05:51:47.798Z,82204.09
2022-10-16T05:54:16.899Z,82460.72
2022-10-16T05:56:47.030Z,81947.50
2022-10-16T05:59:15.638Z,81947.50
2022-10-16T06:01:44.360Z,81947.50
2022-10-16T06:04:13.205Z,82204.09
2022-10-16T06:06:41.773Z,81947.50
2022-10-16T06:09:11.907Z,81947.50
2022-10-16T06:11:40.349Z,81690.91
2022-10-16T06:14:11.166Z,81690.91
2022-10-16T06:16:40.226Z,82460.72
2022-10-16T06:19:09.410Z,81947.50
2022-10-16T06:21:38.382Z,82204.09
2022-10-16T06:24:07.221Z,82204.09
2022-10-16T06:26:35.766Z,82204.09
2022-10-16T06:29:04.751Z,82204.09
2022-10-16T06:31:34.815Z,81947.50
2022-10-16T06:34:05.818Z,82204.09
2022-10-16T06:36:34.414Z,81690.91
2022-10-16T06:39:03.099Z,82204.09
2022-10-16T06:41:32.107Z,81947.50
2022-10-16T06:44:09.736Z,81947.50
2022-10-16T06:46:41.553Z,82204.09
2022-10-16T06:49:10.262Z,82460.72
2022-10-16T06:51:43.333Z,82717.38
2022-10-16T06:54:12.543Z,83230.72
2022-10-16T06:56:41.124Z,82717.38
2022-10-16T06:59:09.510Z,82717.38
2022-10-16T07:01:38.242Z,83487.44
2022-10-16T07:04:08.201Z,83487.44
2022-10-16T07:06:36.993Z,83744.16
2022-10-16T07:09:08.435Z,84257.66
2022-10-16T07:11:38.430Z,84514.44
2022-10-16T07:14:07.604Z,84771.25
2022-10-16T07:16:36.323Z,85284.91
2022-10-16T07:19:05.381Z,85284.91
2022-10-16T07:21:38.388Z,85541.78
2022-10-16T07:24:08.372Z,85284.91
2022-10-16T07:26:40.408Z,85284.91
2022-10-16T07:29:16.022Z,85028.06
2022-10-16T07:31:46.256Z,84771.25
2022-10-16T07:34:17.126Z,84514.44
2022-10-16T07:36:49.486Z,84257.66
2022-10-16T07:39:18.385Z,82974.03
2022-10-16T07:41:47.079Z,81947.50
2022-10-16T07:44:16.049Z,82204.09
2022-10-16T07:46:44.606Z,81177.78
2022-10-16T07:49:12.992Z,80921.25
2022-10-16T07:51:41.543Z,78613.28
2022-10-16T07:54:12.571Z,77588.03
2022-10-16T07:56:43.691Z,78100.63
2022-10-16T07:59:13.310Z,75026.22
2022-10-16T08:01:45.031Z,74514.09
2022-10-16T08:04:13.963Z,69608.72
2022-10-16T08:06:43.244Z,69660.66
2022-10-16T08:09:13.437Z,68925.66
2022-10-16T08:11:42.049Z,67248.50
2022-10-16T08:14:11.431Z,68356.53
2022-10-16T08:16:40.354Z,67699.66
2022-10-16T08:19:09.013Z,65282.91
2022-10-16T08:21:37.964Z,63661.38
2022-10-16T08:24:07.032Z,62664.50
2022-10-16T08:26:37.014Z,61137.88
2022-10-16T08:29:05.745Z,61472.63
2022-10-16T08:31:35.431Z,58942.81
2022-10-16T08:34:04.491Z,57989.13
2022-10-16T08:36:32.913Z,57746.28
2022-10-16T08:39:01.722Z,57483.53
2022-10-16T08:42:07.148Z,56371.09
2022-10-16T08:45:04.270Z,56152.22
2022-10-16T08:47:44.387Z,56613.84
2022-10-16T08:50:15.424Z,56558.13
2022-10-16T08:52:46.464Z,55903.53
2022-10-16T08:55:31.579Z,55825.94
2022-10-16T08:58:02.360Z,55718.50
2022-10-16T09:00:32.242Z,55611.09
2022-10-16T09:03:09.592Z,55463.88
2022-10-16T09:06:03.235Z,54897.00
2022-10-16T09:08:45.074Z,54835.34
2022-10-16T09:11:20.560Z,54654.38
2022-10-16T09:13:57.946Z,54688.16
2022-10-16T09:16:33.361Z,54678.22
2022-10-16T09:19:11.397Z,54602.66
2022-10-16T09:21:43.763Z,54517.16
2022-10-16T09:24:14.947Z,54485.31
2022-10-16T09:26:43.903Z,54475.38
2022-10-16T09:29:15.057Z,54465.44
2022-10-16T09:31:46.896Z,54421.69
2022-10-16T09:34:29.052Z,54350.09
2022-10-16T09:36:59.910Z,54298.41
2022-10-16T09:39:28.635Z,54175.13
2022-10-16T09:41:58.842Z,54125.41
2022-10-16T09:44:32.164Z,54059.78
2022-10-16T09:47:05.342Z,54051.81
2022-10-16T09:49:35.650Z,54067.75
2022-10-16T09:52:08.778Z,54039.91
2022-10-16T09:54:37.610Z,53992.19
2022-10-16T09:57:14.872Z,53916.63
2022-10-16T09:59:50.639Z,53936.50
2022-10-16T10:02:21.411Z,53920.59
2022-10-16T10:04:55.327Z,53884.81
2022-10-16T10:07:29.153Z,53803.28
2022-10-16T10:09:59.741Z,53821.19
2022-10-16T10:12:30.646Z,53787.38
2022-10-16T10:15:07.985Z,53743.66
2022-10-16T10:17:36.596Z,53713.81
2022-10-16T10:20:24.522Z,53697.91
2022-10-16T10:22:53.220Z,53654.19
2022-10-16T10:25:31.737Z,53678.03
2022-10-16T10:28:20.799Z,53684.00
2022-10-16T10:30:59.016Z,53652.19
2022-10-16T10:33:40.337Z,53689.97
2022-10-16T10:36:20.189Z,53648.22
2022-10-16T10:38:53.917Z,53636.28
2022-10-16T10:42:07.740Z,53626.34
2022-10-16T10:45:03.003Z,53644.22
2022-10-16T10:47:42.730Z,53658.16
2022-10-16T10:50:22.741Z,53628.31
2022-10-16T10:53:00.765Z,53602.47
2022-10-16T10:55:35.982Z,53626.34
2022-10-16T10:58:33.582Z,53620.38
2022-10-16T11:01:09.343Z,53610.44
2022-10-16T11:03:58.344Z,53640.25
2022-10-16T11:06:31.857Z,53622.38
2022-10-16T11:09:04.982Z,53616.41
2022-10-16T11:11:40.469Z,53634.28
2022-10-16T11:14:17.862Z,53598.50
2022-10-16T11:16:54.228Z,53594.53
2022-10-16T11:19:37.587Z,53604.47
2022-10-16T11:22:12.071Z,53582.59
2022-10-16T11:24:48.247Z,53562.72
2022-10-16T11:27:20.931Z,53566.69
2022-10-16T11:29:56.005Z,53580.63
2022-10-16T11:32:32.437Z,53606.47
2022-10-16T11:35:13.676Z,53582.59
2022-10-16T11:37:46.157Z,53590.56
2022-10-16T11:40:25.121Z,53572.66
2022-10-16T11:43:01.356Z,53570.69
2022-10-16T11:45:36.744Z,53566.69
2022-10-16T11:48:18.145Z,53554.78
2022-10-16T11:50:54.085Z,53534.88
2022-10-16T11:53:32.018Z,53491.16
2022-10-16T11:56:00.835Z,53522.97
2022-10-16T11:58:35.474Z,53507.06
2022-10-16T12:01:20.234Z,53477.22
2022-10-16T12:03:59.633Z,53520.97
2022-10-16T12:06:35.625Z,53507.06
2022-10-16T12:09:06.175Z,53509.03
2022-10-16T12:11:38.465Z,53493.13
2022-10-16T12:14:20.056Z,53507.06
2022-10-16T12:16:59.513Z,53503.06
2022-10-16T12:19:31.388Z,53524.94
2022-10-16T12:22:04.554Z,53487.19
2022-10-16T12:24:39.424Z,53483.19
2022-10-16T12:27:22.734Z,53471.28
2022-10-16T12:29:58.531Z,53483.19
2022-10-16T12:32:49.868Z,53471.28
2022-10-16T12:35:22.339Z,53457.34
2022-10-16T12:37:53.524Z,53455.38
2022-10-16T12:40:32.051Z,53445.44
2022-10-16T12:43:01.223Z,53391.75
2022-10-16T12:45:33.490Z,53431.50
2022-10-16T12:48:04.719Z,53403.69
2022-10-16T12:50:36.796Z,53421.56
2022-10-16T12:53:20.725Z,53387.78
2022-10-16T12:56:01.869Z,53336.09
2022-10-16T12:58:45.046Z,53377.84
2022-10-16T13:01:27.640Z,53375.84
2022-10-16T13:04:28.364Z,53397.72
2022-10-16T13:07:06.413Z,53395.72
2022-10-16T13:09:52.875Z,53423.56
2022-10-16T13:13:00.402Z,53391.75
2022-10-16T13:15:51.213Z,53447.41
2022-10-16T13:18:25.130Z,53455.38
2022-10-16T13:21:09.832Z,53475.25
2022-10-16T13:26:30.729Z,53467.28
2022-10-16T13:29:02.633Z,53477.22
2022-10-16T13:31:34.538Z,53425.53
2022-10-16T13:34:05.169Z,53449.41
2022-10-16T13:36:38.610Z,53429.53
2022-10-16T13:39:14.697Z,53439.47
2022-10-16T13:41:44.816Z,53467.28
2022-10-16T13:44:19.595Z,53419.59
2022-10-16T13:46:48.712Z,53411.63
2022-10-16T13:49:21.263Z,53441.44
2022-10-16T13:51:57.338Z,53429.53
2022-10-16T13:54:27.869Z,53429.53
2022-10-16T13:57:15.493Z,53435.47
2022-10-16T13:59:48.901Z,53467.28
2022-10-16T14:02:28.718Z,53447.41
2022-10-16T14:05:00.030Z,53469.28
2022-10-16T14:07:32.259Z,53433.50
2022-10-16T14:10:04.399Z,53471.28
2022-10-16T14:12:35.521Z,53469.28
2022-10-16T14:15:04.924Z,53443.44
2022-10-16T14:17:37.314Z,53485.19
2022-10-16T14:20:08.305Z,53485.19
2022-10-16T14:22:39.274Z,53471.28
2022-10-16T14:25:27.655Z,53485.19
2022-10-16T14:28:03.575Z,53481.22
2022-10-16T14:30:33.447Z,53487.19
2022-10-16T14:33:04.379Z,53481.22
2022-10-16T14:35:35.315Z,53518.97
2022-10-16T14:38:06.859Z,53479.22
2022-10-16T14:40:38.353Z,53520.97
2022-10-16T14:43:08.778Z,53528.94
2022-10-16T14:45:39.572Z,53534.88
2022-10-16T14:48:20.054Z,53542.84
2022-10-16T14:50:49.131Z,53558.75
2022-10-16T14:53:18.104Z,53546.81
2022-10-16T14:55:47.184Z,53598.50
2022-10-16T14:58:20.060Z,53554.78
2022-10-16T15:00:49.204Z,53602.47
2022-10-16T15:03:18.587Z,53582.59
2022-10-16T15:05:48.277Z,53604.47
2022-10-16T15:08:17.700Z,53624.34
2022-10-16T15:10:47.070Z,53624.34
2022-10-16T15:13:17.737Z,53642.25
2022-10-16T15:15:47.716Z,53689.97
2022-10-16T15:18:21.418Z,53666.09
2022-10-16T15:20:52.305Z,53725.75
2022-10-16T15:23:23.311Z,53745.63
2022-10-16T15:25:53.903Z,53749.59
2022-10-16T15:28:25.750Z,53769.50
2022-10-16T15:30:56.959Z,53773.47
2022-10-16T15:33:33.249Z,53739.66
2022-10-16T15:36:05.479Z,53817.22
2022-10-16T15:38:34.476Z,53805.28
2022-10-16T15:41:03.480Z,53821.19
2022-10-16T15:43:33.746Z,53872.88
2022-10-16T15:46:04.652Z,53888.78
2022-10-16T15:48:34.220Z,53884.81
2022-10-16T15:51:07.022Z,53908.66
2022-10-16T15:53:36.171Z,53910.66
2022-10-16T15:56:05.590Z,53946.44
2022-10-16T15:58:36.522Z,53978.25
2022-10-16T16:01:07.094Z,53990.19
2022-10-16T16:03:37.091Z,54047.84
2022-10-16T16:06:10.242Z,54073.69
2022-10-16T16:08:39.522Z,54071.72
2022-10-16T16:11:10.384Z,54095.56
2022-10-16T16:13:41.291Z,54119.44
2022-10-16T16:16:11.620Z,54151.25
2022-10-16T16:18:43.039Z,54187.03
2022-10-16T16:21:13.275Z,54212.88
2022-10-16T16:23:42.615Z,54248.69
2022-10-16T16:26:14.110Z,54276.53
2022-10-16T16:28:46.698Z,54310.34
2022-10-16T16:31:15.842Z,54310.34
2022-10-16T16:33:44.553Z,54360.03
2022-10-16T16:36:15.908Z,54417.72
2022-10-16T16:38:45.053Z,54449.53
2022-10-16T16:41:14.714Z,54431.63
2022-10-16T16:43:44.759Z,54521.13
2022-10-16T16:46:14.202Z,54692.16
2022-10-16T16:48:43.748Z,54692.16
2022-10-16T16:51:17.390Z,54755.78
2022-10-16T16:53:47.570Z,54827.38
2022-10-16T16:56:16.792Z,54873.13
2022-10-16T16:58:49.465Z,54998.44
2022-10-16T17:01:20.794Z,55127.72
2022-10-16T17:03:52.953Z,55193.34
2022-10-16T17:06:23.056Z,55259.00
2022-10-16T17:08:52.922Z,55328.63
2022-10-16T17:11:23.923Z,55463.88
2022-10-16T17:13:56.765Z,55603.13
2022-10-16T17:16:28.233Z,55694.63
2022-10-16T17:18:56.980Z,55810.03
2022-10-16T17:21:27.083Z,55887.59
2022-10-16T17:23:56.232Z,56044.78
2022-10-16T17:26:25.130Z,56156.19
2022-10-16T17:28:56.355Z,56345.22
2022-10-16T17:31:27.102Z,56494.44
2022-10-16T17:33:56.541Z,56784.97
2022-10-16T17:36:25.873Z,56920.28
2022-10-16T17:38:54.805Z,57155.13
2022-10-16T17:41:25.648Z,57405.91
2022-10-16T17:43:56.034Z,57614.91
2022-10-16T17:46:25.742Z,57718.41
2022-10-16T17:48:56.442Z,57722.38
2022-10-16T17:51:30.313Z,57766.19
2022-10-16T17:54:02.489Z,57867.69
2022-10-16T17:56:32.729Z,57961.25
2022-10-16T17:59:03.826Z,57993.09
2022-10-16T18:01:34.308Z,57905.53
2022-10-16T18:04:05.709Z,57861.72
2022-10-16T18:06:35.537Z,57746.28
2022-10-16T18:09:05.874Z,57598.97
2022-10-16T18:11:35.355Z,57479.56
2022-10-16T18:14:06.262Z,57433.78
2022-10-16T18:16:36.708Z,57218.81
2022-10-16T18:19:06.208Z,57210.84
2022-10-16T18:21:35.237Z,57107.38
2022-10-16T18:24:03.967Z,57033.72
2022-10-16T18:26:33.335Z,56920.28
2022-10-16T18:29:02.851Z,56808.84
2022-10-16T18:31:37.787Z,56707.38
2022-10-16T18:34:09.851Z,56621.78
2022-10-16T18:36:39.982Z,56327.31
2022-10-16T18:39:10.797Z,56315.38
2022-10-16T18:41:41.909Z,56188.03
2022-10-16T18:44:11.485Z,56219.88
2022-10-16T18:46:42.338Z,56213.91
2022-10-16T18:49:12.178Z,56289.50
2022-10-16T18:51:44.294Z,56572.06
2022-10-16T18:54:14.279Z,56812.84
2022-10-16T18:56:42.862Z,57149.16
2022-10-16T18:59:11.940Z,57728.34
2022-10-16T19:01:43.614Z,57921.44
2022-10-16T19:04:15.877Z,58504.75
2022-10-16T19:06:46.794Z,61717.75
2022-10-16T19:09:17.766Z,61137.88
2022-10-16T19:11:46.844Z,61600.19
2022-10-16T19:14:17.091Z,62600.72
2022-10-16T19:16:47.486Z,63290.50
2022-10-16T19:19:18.466Z,64780.19
2022-10-16T19:21:48.274Z,66114.91
2022-10-16T19:24:17.898Z,66995.00
2022-10-16T19:26:46.581Z,68638.09
2022-10-16T19:29:16.508Z,70283.94
2022-10-16T19:31:50.900Z,73234.09
2022-10-16T19:34:22.426Z,75282.31
2022-10-16T19:36:51.189Z,75794.56
2022-10-16T19:41:53.477Z,78613.28
2022-10-16T19:44:22.378Z,79382.44
2022-10-16T19:46:52.661Z,81434.31
2022-10-16T19:49:22.408Z,82204.09
2022-10-16T19:51:52.319Z,82717.38
2022-10-16T19:54:21.609Z,84771.25
2022-10-16T19:56:50.310Z,86826.34
2022-10-16T19:59:20.442Z,87340.31
2022-10-16T20:01:49.216Z,88111.41
2022-10-16T20:04:19.549Z,87083.34
2022-10-16T20:06:48.684Z,86826.34
2022-10-16T20:09:17.508Z,87854.38
2022-10-16T20:11:46.507Z,88111.41
2022-10-16T20:14:15.566Z,88882.69
2022-10-16T20:16:44.235Z,90682.97
2022-10-16T20:19:13.118Z,91197.50
2022-10-16T20:21:43.203Z,92226.81
2022-10-16T20:24:11.865Z,92999.00
2022-10-16T20:26:40.829Z,93513.91
2022-10-16T20:29:10.314Z,94286.38
2022-10-16T20:31:42.026Z,95059.00
2022-10-16T20:34:13.860Z,96347.13
2022-10-16T20:36:52.477Z,98151.31
2022-10-16T20:39:23.952Z,97893.50
2022-10-16T20:41:52.536Z,98151.31
2022-10-16T20:44:21.320Z,97893.50
2022-10-16T20:46:50.082Z,97377.97
2022-10-16T20:49:28.756Z,96862.50
2022-10-16T20:52:09.418Z,97635.72
2022-10-16T20:54:38.229Z,96604.81
2022-10-16T20:57:07.100Z,95831.81
2022-10-16T20:59:35.884Z,95316.59
2022-10-16T21:02:05.901Z,96347.13
2022-10-16T21:04:36.822Z,95574.19
2022-10-16T21:07:05.711Z,94801.44
2022-10-16T21:09:35.933Z,92741.59
2022-10-16T21:12:04.590Z,93256.44
2022-10-16T21:14:33.571Z,93256.44
2022-10-16T21:17:02.410Z,93513.91
2022-10-16T21:19:31.085Z,93771.38
2022-10-16T21:21:59.566Z,93771.38
2022-10-16T21:24:28.124Z,94286.38
2022-10-16T21:26:58.153Z,94801.44
2022-10-16T21:29:26.683Z,95059.00
2022-10-16T21:31:55.340Z,94286.38
2022-10-16T21:34:23.931Z,95574.19
2022-10-16T21:36:52.842Z,94543.91
2022-10-16T21:39:22.269Z,93256.44
2022-10-16T21:41:52.390Z,94286.38
2022-10-16T21:44:22.585Z,96347.13
2022-10-16T21:46:52.054Z,98924.81
2022-10-16T21:49:21.064Z,100214.34
2022-10-16T21:51:51.435Z,100988.31
2022-10-16T21:54:22.322Z,101504.38
2022-10-16T21:56:51.027Z,101762.47
2022-10-16T21:59:22.654Z,101762.47
2022-10-16T22:01:54.217Z,102020.53
2022-10-16T22:04:23.426Z,103053.06
2022-10-16T22:06:51.932Z,103311.25
2022-10-16T22:09:20.794Z,103053.06
2022-10-16T22:11:51.131Z,103053.06
2022-10-16T22:14:22.110Z,103827.66
2022-10-16T22:16:52.179Z,104602.44
2022-10-16T22:19:22.879Z,105119.03
2022-10-16T22:21:54.652Z,106410.88
2022-10-16T22:24:23.738Z,106410.88
2022-10-16T22:26:52.278Z,106410.88
2022-10-16T22:29:20.760Z,106669.31
2022-10-16T22:31:54.077Z,107703.22
2022-10-16T22:34:22.809Z,108220.28
2022-10-16T22:36:51.679Z,108478.84
2022-10-16T22:39:20.395Z,108478.84
2022-10-16T22:41:48.960Z,108478.84
2022-10-16T22:44:17.581Z,108996.00
2022-10-16T22:46:46.031Z,109513.28
2022-10-16T22:49:17.780Z,109513.28
2022-10-16T22:51:46.732Z,109513.28
2022-10-16T22:54:15.272Z,110030.59
2022-10-16T22:56:43.987Z,110548.00
2022-10-16T22:59:12.941Z,110548.00
2022-10-16T23:01:43.060Z,110548.00
2022-10-16T23:04:11.840Z,110806.75
2022-10-16T23:06:41.803Z,111065.50
2022-10-16T23:09:11.904Z,111065.50
2022-10-16T23:11:40.795Z,110806.75
2022-10-16T23:14:09.392Z,110806.75
2022-10-16T23:16:38.092Z,111065.50
2022-10-16T23:19:06.807Z,111583.06
2022-10-16T23:21:35.633Z,111583.06
2022-10-16T23:24:06.155Z,112100.69
2022-10-16T23:26:35.814Z,112100.69
2022-10-16T23:29:05.124Z,112359.53
2022-10-16T23:31:33.828Z,112359.53
2022-10-16T23:34:02.872Z,112100.69
2022-10-16T23:36:31.784Z,111841.88
2022-10-16T23:39:00.254Z,111841.88
2022-10-16T23:41:30.415Z,112359.53
2022-10-16T23:43:59.069Z,112359.53
2022-10-16T23:46:27.706Z,112618.41
2022-10-16T23:48:56.414Z,112359.53
2022-10-16T23:51:25.123Z,112877.31
2022-10-16T23:53:53.910Z,112877.31
2022-10-16T23:56:23.041Z,113395.13
2022-10-16T23:58:52.971Z,113654.06
